الصفحة الرئيسية
METAR-TAF:

METAR-TAF

مطار :

Akureyri, أيسلندا

دائرة عرض: 65-41N, خط طول: 018-05W, ارتفاع: 23 متر

مراقبة الطقس الحالي

تاريخ ووقت الإصدار 36 دقيقة قبل الساعة 01:00UTC
ريح 3 عقدة من الجنوب
درجة الحرارة 0°درجة مئوية
الرطوبة 93%
ضغط 1012 hPa
الرؤية 10 كم أو أكثر
الغيوم لا تقل 1500 م ولا وجود لمزنة ركامية السحاب الأسود

METAR: BIAR 230100Z 17003KT CAVOK 00/M01 Q1012 RMK WIND VADLAHEIDI 04003KT

زمن: 01:36 (01:36 UTC)

توقعات

تاريخ ووقت الإصدار 3ساعات و 32 دقيقة قبل الساعة 22:04UTC
التوقعات صالحة من23 الساعة 00 UTC إلى 24 الساعة 00 UTC
ريح 3 عقدةمن اتجاهات متغيرة
الرؤية 10 كم أو أكثر
غيوم قليلة على ارتفاع 5500 قدم
أصبح
من 23 الساعة 00 UTC إلى 23 الساعة 02 UTC
غيوم متفرقة على ارتفاع 2000 قدم
غيوم مفككة على ارتفاع 3500 قدم
مؤقت
من 23 الساعة 09 UTC إلى 24 الساعة 00 UTC
الرؤية: 1000 متر
ملبد بالغيوم على ارتفاع 500 قدم
رذاذ خفيف, ضباب

TAF: BIAR 222204Z 2300/2400 VRB03KT 9999 FEW055 TX03/2314Z TN01/2300Z BECMG 2300/2302 SCT020 BKN035 TEMPO 2309/2400 1000 -DZ FG OVC005

أرصاد الطقس والتوقعات من أكثر من 4000 مطار (تقارير الطقس للمطار METAR والتنبؤ بالطقس بالمطارTAF).

المحطات المتاحة هي النقط الصفراء والحمراء على الخريطة.

حرك المؤشر فوق النقطة لمعرفة اسم المحطة.

ثم انقر لمعرفة أرصاد وتوقعات الطقس.

لتغيير الخارطة: اضغط على الأزرار الخضراء مع رمز الصليب الأسود للتكبير. على الزر الأخضر مع شرطة للتصغير، أو على الأسهم الخضراء للخرائط المجاورة.


METAR-TAF: